sensor_id;sensor_type;location;lat;lon;timestamp;P1;durP1;ratioP1;P2;durP2;ratioP2
22786;SDS011;63134;52.020;4.714;2023-06-26T00:02:10;8.43;;;4.03;;
22786;SDS011;63134;52.020;4.714;2023-06-26T00:04:56;6.80;;;4.30;;
22786;SDS011;63134;52.020;4.714;2023-06-26T00:07:47;4.95;;;3.78;;
22786;SDS011;63134;52.020;4.714;2023-06-26T00:10:33;3.70;;;3.20;;
22786;SDS011;63134;52.020;4.714;2023-06-26T00:13:19;4.07;;;3.67;;
22786;SDS011;63134;52.020;4.714;2023-06-26T00:16:05;6.32;;;4.05;;
22786;SDS011;63134;52.020;4.714;2023-06-26T00:18:50;4.60;;;4.10;;
22786;SDS011;63134;52.020;4.714;2023-06-26T00:21:36;5.53;;;4.57;;
22786;SDS011;63134;52.020;4.714;2023-06-26T00:24:22;9.15;;;4.65;;
22786;SDS011;63134;52.020;4.714;2023-06-26T00:27:08;6.85;;;4.40;;
22786;SDS011;63134;52.020;4.714;2023-06-26T00:29:56;6.72;;;4.40;;
22786;SDS011;63134;52.020;4.714;2023-06-26T00:32:42;4.82;;;4.22;;
22786;SDS011;63134;52.020;4.714;2023-06-26T00:35:28;8.45;;;4.85;;
22786;SDS011;63134;52.020;4.714;2023-06-26T00:38:14;6.60;;;4.60;;
22786;SDS011;63134;52.020;4.714;2023-06-26T00:40:59;6.43;;;4.28;;
22786;SDS011;63134;52.020;4.714;2023-06-26T00:43:48;8.77;;;4.78;;
22786;SDS011;63134;52.020;4.714;2023-06-26T00:46:33;8.75;;;4.22;;
22786;SDS011;63134;52.020;4.714;2023-06-26T00:49:20;5.10;;;3.60;;
22786;SDS011;63134;52.020;4.714;2023-06-26T00:52:05;6.63;;;4.32;;
22786;SDS011;63134;52.020;4.714;2023-06-26T00:54:51;9.38;;;4.70;;
22786;SDS011;63134;52.020;4.714;2023-06-26T00:57:37;8.70;;;4.68;;
22786;SDS011;63134;52.020;4.714;2023-06-26T01:00:22;12.27;;;5.22;;
22786;SDS011;63134;52.020;4.714;2023-06-26T01:03:09;7.03;;;4.18;;
22786;SDS011;63134;52.020;4.714;2023-06-26T01:05:55;6.43;;;3.72;;
22786;SDS011;63134;52.020;4.714;2023-06-26T01:08:43;6.28;;;4.22;;
22786;SDS011;63134;52.020;4.714;2023-06-26T01:11:30;6.07;;;4.38;;
22786;SDS011;63134;52.020;4.714;2023-06-26T01:14:16;7.25;;;4.05;;
22786;SDS011;63134;52.020;4.714;2023-06-26T01:17:02;8.30;;;4.07;;
22786;SDS011;63134;52.020;4.714;2023-06-26T01:19:49;9.07;;;4.45;;
22786;SDS011;63134;52.020;4.714;2023-06-26T01:28:46;14.20;;;4.82;;
22786;SDS011;63134;52.020;4.714;2023-06-26T01:31:32;8.65;;;4.07;;
22786;SDS011;63134;52.020;4.714;2023-06-26T01:34:19;7.90;;;4.50;;
22786;SDS011;63134;52.020;4.714;2023-06-26T01:37:07;11.07;;;4.60;;
22786;SDS011;63134;52.020;4.714;2023-06-26T01:39:53;6.28;;;4.47;;
22786;SDS011;63134;52.020;4.714;2023-06-26T01:42:38;16.20;;;6.25;;
22786;SDS011;63134;52.020;4.714;2023-06-26T01:45:26;7.05;;;3.90;;
22786;SDS011;63134;52.020;4.714;2023-06-26T01:48:14;12.23;;;4.97;;
22786;SDS011;63134;52.020;4.714;2023-06-26T01:51:04;14.05;;;4.88;;
22786;SDS011;63134;52.020;4.714;2023-06-26T01:53:54;11.35;;;4.47;;
22786;SDS011;63134;52.020;4.714;2023-06-26T01:56:42;8.27;;;4.90;;
22786;SDS011;63134;52.020;4.714;2023-06-26T01:59:29;11.07;;;4.63;;
22786;SDS011;63134;52.020;4.714;2023-06-26T02:02:19;10.70;;;4.85;;
22786;SDS011;63134;52.020;4.714;2023-06-26T02:05:05;13.07;;;5.03;;
22786;SDS011;63134;52.020;4.714;2023-06-26T02:07:51;24.17;;;6.55;;
22786;SDS011;63134;52.020;4.714;2023-06-26T02:10:37;13.05;;;5.60;;
22786;SDS011;63134;52.020;4.714;2023-06-26T02:13:23;13.75;;;5.72;;
22786;SDS011;63134;52.020;4.714;2023-06-26T02:16:08;12.07;;;5.63;;
22786;SDS011;63134;52.020;4.714;2023-06-26T02:18:54;14.05;;;5.32;;
22786;SDS011;63134;52.020;4.714;2023-06-26T02:21:41;12.27;;;4.80;;
22786;SDS011;63134;52.020;4.714;2023-06-26T02:24:29;10.30;;;5.05;;
22786;SDS011;63134;52.020;4.714;2023-06-26T02:27:17;10.98;;;4.70;;
22786;SDS011;63134;52.020;4.714;2023-06-26T02:30:03;16.63;;;5.85;;
22786;SDS011;63134;52.020;4.714;2023-06-26T02:32:49;11.40;;;5.00;;
22786;SDS011;63134;52.020;4.714;2023-06-26T02:35:36;11.10;;;5.15;;
22786;SDS011;63134;52.020;4.714;2023-06-26T02:38:21;10.15;;;5.32;;
22786;SDS011;63134;52.020;4.714;2023-06-26T02:41:07;13.40;;;4.93;;
22786;SDS011;63134;52.020;4.714;2023-06-26T02:43:54;11.00;;;4.82;;
22786;SDS011;63134;52.020;4.714;2023-06-26T02:46:42;11.82;;;4.90;;
22786;SDS011;63134;52.020;4.714;2023-06-26T02:49:28;13.95;;;6.13;;
22786;SDS011;63134;52.020;4.714;2023-06-26T02:52:14;13.27;;;5.63;;
22786;SDS011;63134;52.020;4.714;2023-06-26T02:55:00;10.90;;;5.68;;
22786;SDS011;63134;52.020;4.714;2023-06-26T02:57:46;10.75;;;5.10;;
22786;SDS011;63134;52.020;4.714;2023-06-26T03:00:31;20.00;;;5.80;;
22786;SDS011;63134;52.020;4.714;2023-06-26T03:03:20;15.70;;;5.22;;
22786;SDS011;63134;52.020;4.714;2023-06-26T03:06:07;12.00;;;5.07;;
22786;SDS011;63134;52.020;4.714;2023-06-26T03:08:53;12.25;;;5.70;;
22786;SDS011;63134;52.020;4.714;2023-06-26T03:11:39;12.90;;;5.38;;
22786;SDS011;63134;52.020;4.714;2023-06-26T03:14:24;13.35;;;5.88;;
22786;SDS011;63134;52.020;4.714;2023-06-26T03:17:11;13.55;;;5.55;;
22786;SDS011;63134;52.020;4.714;2023-06-26T03:19:58;10.63;;;5.72;;
22786;SDS011;63134;52.020;4.714;2023-06-26T03:22:51;13.73;;;5.25;;
22786;SDS011;63134;52.020;4.714;2023-06-26T03:25:38;12.70;;;5.45;;
22786;SDS011;63134;52.020;4.714;2023-06-26T03:28:41;19.40;;;5.82;;
22786;SDS011;63134;52.020;4.714;2023-06-26T03:31:29;13.60;;;5.63;;
22786;SDS011;63134;52.020;4.714;2023-06-26T03:34:15;16.13;;;5.95;;
22786;SDS011;63134;52.020;4.714;2023-06-26T03:37:01;15.52;;;5.40;;
22786;SDS011;63134;52.020;4.714;2023-06-26T03:39:47;14.63;;;5.72;;
22786;SDS011;63134;52.020;4.714;2023-06-26T03:42:32;16.52;;;5.78;;
22786;SDS011;63134;52.020;4.714;2023-06-26T03:45:18;15.77;;;5.75;;
22786;SDS011;63134;52.020;4.714;2023-06-26T03:48:04;17.17;;;5.95;;
22786;SDS011;63134;52.020;4.714;2023-06-26T03:50:50;12.85;;;5.65;;
22786;SDS011;63134;52.020;4.714;2023-06-26T03:53:36;12.40;;;5.57;;
22786;SDS011;63134;52.020;4.714;2023-06-26T03:56:22;11.75;;;5.47;;
22786;SDS011;63134;52.020;4.714;2023-06-26T03:59:09;9.38;;;4.88;;
22786;SDS011;63134;52.020;4.714;2023-06-26T04:01:55;13.32;;;5.47;;
22786;SDS011;63134;52.020;4.714;2023-06-26T04:04:41;13.35;;;5.22;;
22786;SDS011;63134;52.020;4.714;2023-06-26T04:07:28;14.63;;;4.65;;
22786;SDS011;63134;52.020;4.714;2023-06-26T04:10:16;14.15;;;5.45;;
22786;SDS011;63134;52.020;4.714;2023-06-26T04:13:02;12.02;;;5.28;;
22786;SDS011;63134;52.020;4.714;2023-06-26T04:15:47;11.00;;;4.53;;
22786;SDS011;63134;52.020;4.714;2023-06-26T04:18:32;9.55;;;4.85;;
22786;SDS011;63134;52.020;4.714;2023-06-26T04:21:18;11.23;;;4.63;;
22786;SDS011;63134;52.020;4.714;2023-06-26T04:24:04;15.15;;;5.07;;
22786;SDS011;63134;52.020;4.714;2023-06-26T04:26:50;12.18;;;5.35;;
22786;SDS011;63134;52.020;4.714;2023-06-26T04:29:36;11.48;;;4.90;;
22786;SDS011;63134;52.020;4.714;2023-06-26T04:32:21;11.40;;;5.13;;
22786;SDS011;63134;52.020;4.714;2023-06-26T04:35:07;11.35;;;4.90;;
22786;SDS011;63134;52.020;4.714;2023-06-26T04:37:52;8.45;;;4.18;;
22786;SDS011;63134;52.020;4.714;2023-06-26T04:40:38;11.15;;;4.60;;
22786;SDS011;63134;52.020;4.714;2023-06-26T04:43:24;13.32;;;4.65;;
22786;SDS011;63134;52.020;4.714;2023-06-26T04:46:09;10.20;;;4.15;;
22786;SDS011;63134;52.020;4.714;2023-06-26T04:48:55;7.50;;;4.18;;
22786;SDS011;63134;52.020;4.714;2023-06-26T04:51:43;10.90;;;4.45;;
22786;SDS011;63134;52.020;4.714;2023-06-26T04:54:29;8.93;;;4.28;;
22786;SDS011;63134;52.020;4.714;2023-06-26T04:57:14;7.13;;;3.55;;
22786;SDS011;63134;52.020;4.714;2023-06-26T05:00:00;10.13;;;3.55;;
22786;SDS011;63134;52.020;4.714;2023-06-26T05:02:46;11.15;;;4.82;;
22786;SDS011;63134;52.020;4.714;2023-06-26T05:05:32;6.15;;;3.08;;
22786;SDS011;63134;52.020;4.714;2023-06-26T05:08:18;6.18;;;3.92;;
22786;SDS011;63134;52.020;4.714;2023-06-26T05:11:06;5.57;;;3.45;;
22786;SDS011;63134;52.020;4.714;2023-06-26T05:13:52;6.30;;;3.05;;
22786;SDS011;63134;52.020;4.714;2023-06-26T05:16:37;5.63;;;3.00;;
22786;SDS011;63134;52.020;4.714;2023-06-26T05:19:23;7.88;;;3.72;;
22786;SDS011;63134;52.020;4.714;2023-06-26T05:22:08;8.50;;;3.55;;
22786;SDS011;63134;52.020;4.714;2023-06-26T05:24:55;7.30;;;3.10;;
22786;SDS011;63134;52.020;4.714;2023-06-26T05:27:44;5.63;;;3.38;;
22786;SDS011;63134;52.020;4.714;2023-06-26T05:30:30;6.47;;;3.20;;
22786;SDS011;63134;52.020;4.714;2023-06-26T05:33:17;4.65;;;3.03;;
22786;SDS011;63134;52.020;4.714;2023-06-26T05:36:06;8.55;;;3.38;;
22786;SDS011;63134;52.020;4.714;2023-06-26T05:38:54;7.15;;;3.53;;
22786;SDS011;63134;52.020;4.714;2023-06-26T05:41:42;5.93;;;3.72;;
22786;SDS011;63134;52.020;4.714;2023-06-26T05:44:31;8.00;;;3.85;;
22786;SDS011;63134;52.020;4.714;2023-06-26T05:47:17;9.55;;;3.40;;
22786;SDS011;63134;52.020;4.714;2023-06-26T05:50:03;6.47;;;3.40;;
22786;SDS011;63134;52.020;4.714;2023-06-26T05:52:49;7.70;;;3.45;;
22786;SDS011;63134;52.020;4.714;2023-06-26T05:55:35;6.35;;;3.53;;
22786;SDS011;63134;52.020;4.714;2023-06-26T05:58:24;8.00;;;3.70;;
22786;SDS011;63134;52.020;4.714;2023-06-26T06:01:15;10.52;;;3.63;;
22786;SDS011;63134;52.020;4.714;2023-06-26T06:04:04;5.85;;;3.03;;
22786;SDS011;63134;52.020;4.714;2023-06-26T06:06:50;8.20;;;3.28;;
22786;SDS011;63134;52.020;4.714;2023-06-26T06:09:36;5.15;;;2.50;;
22786;SDS011;63134;52.020;4.714;2023-06-26T06:12:22;4.15;;;2.05;;
22786;SDS011;63134;52.020;4.714;2023-06-26T06:15:08;5.35;;;2.80;;
22786;SDS011;63134;52.020;4.714;2023-06-26T06:17:54;4.65;;;1.90;;
22786;SDS011;63134;52.020;4.714;2023-06-26T06:20:39;3.90;;;2.00;;
22786;SDS011;63134;52.020;4.714;2023-06-26T06:23:25;7.72;;;2.47;;
22786;SDS011;63134;52.020;4.714;2023-06-26T06:26:12;3.88;;;1.88;;
22786;SDS011;63134;52.020;4.714;2023-06-26T06:28:57;3.17;;;1.90;;
22786;SDS011;63134;52.020;4.714;2023-06-26T06:31:43;6.57;;;1.98;;
22786;SDS011;63134;52.020;4.714;2023-06-26T06:34:29;6.22;;;2.28;;
22786;SDS011;63134;52.020;4.714;2023-06-26T06:37:14;5.40;;;1.80;;
22786;SDS011;63134;52.020;4.714;2023-06-26T06:40:00;6.00;;;2.20;;
22786;SDS011;63134;52.020;4.714;2023-06-26T06:42:45;11.68;;;2.70;;
22786;SDS011;63134;52.020;4.714;2023-06-26T06:45:31;10.40;;;2.20;;
22786;SDS011;63134;52.020;4.714;2023-06-26T06:48:19;7.00;;;2.15;;
22786;SDS011;63134;52.020;4.714;2023-06-26T06:51:05;7.60;;;2.15;;
22786;SDS011;63134;52.020;4.714;2023-06-26T06:53:53;5.32;;;1.90;;
22786;SDS011;63134;52.020;4.714;2023-06-26T06:56:39;8.60;;;2.38;;
22786;SDS011;63134;52.020;4.714;2023-06-26T06:59:28;7.20;;;2.42;;
22786;SDS011;63134;52.020;4.714;2023-06-26T07:02:14;5.63;;;1.73;;
22786;SDS011;63134;52.020;4.714;2023-06-26T07:05:01;5.90;;;2.15;;
22786;SDS011;63134;52.020;4.714;2023-06-26T07:07:49;8.68;;;2.13;;
22786;SDS011;63134;52.020;4.714;2023-06-26T07:10:40;5.70;;;1.92;;
22786;SDS011;63134;52.020;4.714;2023-06-26T07:13:27;8.10;;;2.20;;
22786;SDS011;63134;52.020;4.714;2023-06-26T07:16:12;5.97;;;1.80;;
22786;SDS011;63134;52.020;4.714;2023-06-26T07:19:00;7.40;;;2.10;;
22786;SDS011;63134;52.020;4.714;2023-06-26T07:21:46;7.15;;;2.08;;
22786;SDS011;63134;52.020;4.714;2023-06-26T07:24:31;4.95;;;1.95;;
22786;SDS011;63134;52.020;4.714;2023-06-26T07:27:18;5.68;;;1.80;;
22786;SDS011;63134;52.020;4.714;2023-06-26T07:30:05;6.40;;;2.17;;
22786;SDS011;63134;52.020;4.714;2023-06-26T07:32:53;4.55;;;2.17;;
22786;SDS011;63134;52.020;4.714;2023-06-26T07:35:39;5.68;;;1.92;;
22786;SDS011;63134;52.020;4.714;2023-06-26T07:38:24;5.70;;;2.22;;
22786;SDS011;63134;52.020;4.714;2023-06-26T07:41:10;9.68;;;2.90;;
22786;SDS011;63134;52.020;4.714;2023-06-26T07:43:58;8.05;;;2.20;;
22786;SDS011;63134;52.020;4.714;2023-06-26T07:46:43;6.20;;;2.00;;
22786;SDS011;63134;52.020;4.714;2023-06-26T07:49:29;5.50;;;2.10;;
22786;SDS011;63134;52.020;4.714;2023-06-26T07:52:15;8.18;;;2.20;;
22786;SDS011;63134;52.020;4.714;2023-06-26T07:55:03;4.15;;;1.70;;
22786;SDS011;63134;52.020;4.714;2023-06-26T07:57:49;3.33;;;1.80;;
22786;SDS011;63134;52.020;4.714;2023-06-26T08:00:37;5.03;;;2.53;;
22786;SDS011;63134;52.020;4.714;2023-06-26T08:03:23;5.05;;;1.75;;
22786;SDS011;63134;52.020;4.714;2023-06-26T08:06:19;6.93;;;1.80;;
22786;SDS011;63134;52.020;4.714;2023-06-26T08:09:04;6.72;;;2.60;;
22786;SDS011;63134;52.020;4.714;2023-06-26T08:11:50;5.38;;;2.47;;
22786;SDS011;63134;52.020;4.714;2023-06-26T08:14:38;6.25;;;2.00;;
22786;SDS011;63134;52.020;4.714;2023-06-26T08:17:24;7.22;;;2.10;;
22786;SDS011;63134;52.020;4.714;2023-06-26T08:20:12;6.90;;;1.95;;
22786;SDS011;63134;52.020;4.714;2023-06-26T08:22:57;7.93;;;2.65;;
22786;SDS011;63134;52.020;4.714;2023-06-26T08:25:43;4.97;;;1.38;;
22786;SDS011;63134;52.020;4.714;2023-06-26T08:28:28;5.00;;;1.80;;
22786;SDS011;63134;52.020;4.714;2023-06-26T08:31:14;5.53;;;1.70;;
22786;SDS011;63134;52.020;4.714;2023-06-26T08:34:04;5.55;;;1.88;;
22786;SDS011;63134;52.020;4.714;2023-06-26T08:36:49;4.97;;;1.70;;
22786;SDS011;63134;52.020;4.714;2023-06-26T08:39:35;5.78;;;2.17;;
22786;SDS011;63134;52.020;4.714;2023-06-26T08:42:24;4.60;;;1.90;;
22786;SDS011;63134;52.020;4.714;2023-06-26T08:45:09;4.35;;;2.15;;
22786;SDS011;63134;52.020;4.714;2023-06-26T08:47:55;6.25;;;2.17;;
22786;SDS011;63134;52.020;4.714;2023-06-26T08:50:45;5.03;;;1.92;;
22786;SDS011;63134;52.020;4.714;2023-06-26T08:56:54;4.95;;;1.73;;
22786;SDS011;63134;52.020;4.714;2023-06-26T08:59:41;7.10;;;2.15;;
22786;SDS011;63134;52.020;4.714;2023-06-26T09:02:26;4.28;;;2.30;;
22786;SDS011;63134;52.020;4.714;2023-06-26T09:05:12;3.15;;;1.65;;
22786;SDS011;63134;52.020;4.714;2023-06-26T09:07:58;5.00;;;1.88;;
22786;SDS011;63134;52.020;4.714;2023-06-26T09:10:44;3.75;;;1.73;;
22786;SDS011;63134;52.020;4.714;2023-06-26T09:13:30;4.30;;;1.58;;
22786;SDS011;63134;52.020;4.714;2023-06-26T09:16:16;4.95;;;1.83;;
22786;SDS011;63134;52.020;4.714;2023-06-26T09:19:02;8.43;;;1.90;;
22786;SDS011;63134;52.020;4.714;2023-06-26T09:21:49;2.88;;;1.50;;
22786;SDS011;63134;52.020;4.714;2023-06-26T09:24:36;6.80;;;1.73;;
22786;SDS011;63134;52.020;4.714;2023-06-26T09:27:24;4.38;;;1.75;;
22786;SDS011;63134;52.020;4.714;2023-06-26T09:30:10;3.63;;;1.80;;
22786;SDS011;63134;52.020;4.714;2023-06-26T09:32:56;6.05;;;1.75;;
22786;SDS011;63134;52.020;4.714;2023-06-26T09:35:45;4.47;;;1.63;;
22786;SDS011;63134;52.020;4.714;2023-06-26T09:38:33;5.47;;;1.50;;
22786;SDS011;63134;52.020;4.714;2023-06-26T09:41:20;8.25;;;2.08;;
22786;SDS011;63134;52.020;4.714;2023-06-26T09:44:06;4.57;;;1.58;;
22786;SDS011;63134;52.020;4.714;2023-06-26T09:46:52;8.68;;;2.03;;
22786;SDS011;63134;52.020;4.714;2023-06-26T09:49:43;4.53;;;1.48;;
22786;SDS011;63134;52.020;4.714;2023-06-26T09:52:28;5.15;;;1.50;;
22786;SDS011;63134;52.020;4.714;2023-06-26T09:55:15;11.07;;;2.25;;
22786;SDS011;63134;52.020;4.714;2023-06-26T09:58:00;11.80;;;2.75;;
22786;SDS011;63134;52.020;4.714;2023-06-26T10:00:50;6.85;;;1.83;;
22786;SDS011;63134;52.020;4.714;2023-06-26T10:03:37;4.03;;;2.10;;
22786;SDS011;63134;52.020;4.714;2023-06-26T10:06:31;7.70;;;1.85;;
22786;SDS011;63134;52.020;4.714;2023-06-26T10:09:30;5.38;;;1.63;;
22786;SDS011;63134;52.020;4.714;2023-06-26T10:12:20;4.68;;;1.90;;
22786;SDS011;63134;52.020;4.714;2023-06-26T10:15:13;6.72;;;1.52;;
22786;SDS011;63134;52.020;4.714;2023-06-26T10:18:02;7.95;;;2.40;;
22786;SDS011;63134;52.020;4.714;2023-06-26T10:20:48;5.97;;;1.98;;
22786;SDS011;63134;52.020;4.714;2023-06-26T10:23:36;4.60;;;1.80;;
22786;SDS011;63134;52.020;4.714;2023-06-26T10:26:25;5.60;;;1.90;;
22786;SDS011;63134;52.020;4.714;2023-06-26T10:29:13;6.10;;;1.92;;
22786;SDS011;63134;52.020;4.714;2023-06-26T10:32:00;5.28;;;1.90;;
22786;SDS011;63134;52.020;4.714;2023-06-26T10:34:51;4.18;;;1.67;;
22786;SDS011;63134;52.020;4.714;2023-06-26T10:37:41;4.03;;;1.90;;
22786;SDS011;63134;52.020;4.714;2023-06-26T10:40:45;4.35;;;1.92;;
22786;SDS011;63134;52.020;4.714;2023-06-26T10:43:33;4.53;;;1.80;;
22786;SDS011;63134;52.020;4.714;2023-06-26T10:46:19;4.20;;;1.85;;
22786;SDS011;63134;52.020;4.714;2023-06-26T10:49:08;5.75;;;1.58;;
22786;SDS011;63134;52.020;4.714;2023-06-26T10:52:00;5.40;;;1.80;;
22786;SDS011;63134;52.020;4.714;2023-06-26T10:54:46;2.65;;;1.48;;
22786;SDS011;63134;52.020;4.714;2023-06-26T10:57:32;4.50;;;1.38;;
22786;SDS011;63134;52.020;4.714;2023-06-26T11:00:21;4.38;;;1.38;;
22786;SDS011;63134;52.020;4.714;2023-06-26T11:03:23;4.45;;;1.40;;
22786;SDS011;63134;52.020;4.714;2023-06-26T11:06:10;4.00;;;1.30;;
22786;SDS011;63134;52.020;4.714;2023-06-26T11:09:07;3.83;;;1.23;;
22786;SDS011;63134;52.020;4.714;2023-06-26T11:11:58;3.63;;;1.20;;
22786;SDS011;63134;52.020;4.714;2023-06-26T11:14:50;4.35;;;1.25;;
22786;SDS011;63134;52.020;4.714;2023-06-26T11:17:36;3.50;;;1.50;;
22786;SDS011;63134;52.020;4.714;2023-06-26T11:20:24;2.85;;;1.30;;
22786;SDS011;63134;52.020;4.714;2023-06-26T11:23:11;2.83;;;1.35;;
22786;SDS011;63134;52.020;4.714;2023-06-26T11:26:19;4.07;;;1.27;;
22786;SDS011;63134;52.020;4.714;2023-06-26T11:29:14;4.78;;;1.40;;
22786;SDS011;63134;52.020;4.714;2023-06-26T11:32:01;6.25;;;1.35;;
22786;SDS011;63134;52.020;4.714;2023-06-26T11:34:49;10.18;;;2.03;;
22786;SDS011;63134;52.020;4.714;2023-06-26T11:37:35;3.92;;;1.25;;
22786;SDS011;63134;52.020;4.714;2023-06-26T11:40:22;5.22;;;1.60;;
22786;SDS011;63134;52.020;4.714;2023-06-26T11:43:11;3.38;;;1.48;;
22786;SDS011;63134;52.020;4.714;2023-06-26T11:46:03;3.88;;;1.42;;
22786;SDS011;63134;52.020;4.714;2023-06-26T11:48:50;3.05;;;1.15;;
22786;SDS011;63134;52.020;4.714;2023-06-26T11:51:36;2.20;;;1.20;;
22786;SDS011;63134;52.020;4.714;2023-06-26T11:54:25;4.28;;;1.30;;
22786;SDS011;63134;52.020;4.714;2023-06-26T11:57:14;5.70;;;1.40;;
22786;SDS011;63134;52.020;4.714;2023-06-26T12:00:13;3.10;;;1.17;;
22786;SDS011;63134;52.020;4.714;2023-06-26T12:02:59;2.28;;;1.23;;
22786;SDS011;63134;52.020;4.714;2023-06-26T12:05:46;2.92;;;1.00;;
22786;SDS011;63134;52.020;4.714;2023-06-26T12:08:32;4.60;;;1.35;;
22786;SDS011;63134;52.020;4.714;2023-06-26T12:11:21;4.00;;;1.15;;
22786;SDS011;63134;52.020;4.714;2023-06-26T12:14:15;1.50;;;1.08;;
22786;SDS011;63134;52.020;4.714;2023-06-26T12:17:08;3.67;;;1.00;;
22786;SDS011;63134;52.020;4.714;2023-06-26T12:19:55;3.60;;;1.15;;
22786;SDS011;63134;52.020;4.714;2023-06-26T12:22:45;3.60;;;1.23;;
22786;SDS011;63134;52.020;4.714;2023-06-26T12:25:32;3.22;;;1.20;;
22786;SDS011;63134;52.020;4.714;2023-06-26T12:28:18;2.67;;;1.10;;
22786;SDS011;63134;52.020;4.714;2023-06-26T12:31:22;3.08;;;1.40;;
22786;SDS011;63134;52.020;4.714;2023-06-26T12:34:08;2.10;;;1.10;;
22786;SDS011;63134;52.020;4.714;2023-06-26T12:37:04;5.07;;;1.20;;
22786;SDS011;63134;52.020;4.714;2023-06-26T12:39:57;2.03;;;1.20;;
22786;SDS011;63134;52.020;4.714;2023-06-26T12:42:43;3.10;;;1.00;;
22786;SDS011;63134;52.020;4.714;2023-06-26T12:45:37;3.47;;;0.95;;
22786;SDS011;63134;52.020;4.714;2023-06-26T12:48:39;4.10;;;1.23;;
22786;SDS011;63134;52.020;4.714;2023-06-26T12:51:28;7.05;;;1.25;;
22786;SDS011;63134;52.020;4.714;2023-06-26T12:54:15;4.45;;;1.42;;
22786;SDS011;63134;52.020;4.714;2023-06-26T12:57:06;3.47;;;1.10;;
22786;SDS011;63134;52.020;4.714;2023-06-26T12:59:55;6.15;;;1.63;;
22786;SDS011;63134;52.020;4.714;2023-06-26T13:02:40;6.00;;;1.20;;
22786;SDS011;63134;52.020;4.714;2023-06-26T13:05:26;3.25;;;1.10;;
22786;SDS011;63134;52.020;4.714;2023-06-26T13:08:11;2.45;;;1.20;;
22786;SDS011;63134;52.020;4.714;2023-06-26T13:10:57;2.60;;;0.90;;
22786;SDS011;63134;52.020;4.714;2023-06-26T13:13:42;2.65;;;1.05;;
22786;SDS011;63134;52.020;4.714;2023-06-26T13:16:36;2.67;;;1.08;;
22786;SDS011;63134;52.020;4.714;2023-06-26T13:19:22;3.70;;;1.10;;
22786;SDS011;63134;52.020;4.714;2023-06-26T13:22:08;4.82;;;0.90;;
22786;SDS011;63134;52.020;4.714;2023-06-26T13:24:53;4.30;;;1.10;;
22786;SDS011;63134;52.020;4.714;2023-06-26T13:27:39;4.18;;;1.38;;
22786;SDS011;63134;52.020;4.714;2023-06-26T13:30:24;1.58;;;1.02;;
22786;SDS011;63134;52.020;4.714;2023-06-26T13:33:11;6.05;;;1.40;;
22786;SDS011;63134;52.020;4.714;2023-06-26T13:35:58;3.20;;;1.13;;
22786;SDS011;63134;52.020;4.714;2023-06-26T13:38:43;1.83;;;0.75;;
22786;SDS011;63134;52.020;4.714;2023-06-26T13:41:29;2.28;;;1.23;;
22786;SDS011;63134;52.020;4.714;2023-06-26T13:44:15;2.92;;;0.80;;
22786;SDS011;63134;52.020;4.714;2023-06-26T13:47:21;3.70;;;1.17;;
22786;SDS011;63134;52.020;4.714;2023-06-26T13:50:09;3.30;;;0.98;;
22786;SDS011;63134;52.020;4.714;2023-06-26T13:52:54;2.40;;;1.00;;
22786;SDS011;63134;52.020;4.714;2023-06-26T13:55:42;2.42;;;0.85;;
22786;SDS011;63134;52.020;4.714;2023-06-26T13:58:29;5.78;;;1.13;;
22786;SDS011;63134;52.020;4.714;2023-06-26T14:01:17;3.88;;;1.10;;
22786;SDS011;63134;52.020;4.714;2023-06-26T14:04:02;1.50;;;0.82;;
22786;SDS011;63134;52.020;4.714;2023-06-26T14:06:50;3.55;;;1.10;;
22786;SDS011;63134;52.020;4.714;2023-06-26T14:09:35;2.38;;;0.80;;
22786;SDS011;63134;52.020;4.714;2023-06-26T14:12:24;4.47;;;1.05;;
22786;SDS011;63134;52.020;4.714;2023-06-26T14:15:10;3.47;;;1.02;;
22786;SDS011;63134;52.020;4.714;2023-06-26T14:17:57;4.43;;;1.40;;
22786;SDS011;63134;52.020;4.714;2023-06-26T14:20:50;5.55;;;1.02;;
22786;SDS011;63134;52.020;4.714;2023-06-26T14:23:36;2.45;;;0.73;;
22786;SDS011;63134;52.020;4.714;2023-06-26T14:26:21;3.67;;;0.90;;
22786;SDS011;63134;52.020;4.714;2023-06-26T14:29:07;2.10;;;0.90;;
22786;SDS011;63134;52.020;4.714;2023-06-26T14:31:53;4.57;;;1.00;;
22786;SDS011;63134;52.020;4.714;2023-06-26T14:34:40;4.78;;;0.95;;
22786;SDS011;63134;52.020;4.714;2023-06-26T14:37:26;2.70;;;0.70;;
22786;SDS011;63134;52.020;4.714;2023-06-26T14:40:12;3.22;;;0.95;;
22786;SDS011;63134;52.020;4.714;2023-06-26T14:42:58;2.22;;;0.90;;
22786;SDS011;63134;52.020;4.714;2023-06-26T14:45:45;2.30;;;1.17;;
22786;SDS011;63134;52.020;4.714;2023-06-26T14:48:31;3.47;;;1.17;;
22786;SDS011;63134;52.020;4.714;2023-06-26T14:51:17;3.22;;;1.20;;
22786;SDS011;63134;52.020;4.714;2023-06-26T14:54:02;3.33;;;0.82;;
22786;SDS011;63134;52.020;4.714;2023-06-26T14:56:48;3.25;;;0.80;;
22786;SDS011;63134;52.020;4.714;2023-06-26T14:59:33;3.45;;;0.90;;
22786;SDS011;63134;52.020;4.714;2023-06-26T15:02:19;2.03;;;0.95;;
22786;SDS011;63134;52.020;4.714;2023-06-26T15:05:08;1.33;;;1.17;;
22786;SDS011;63134;52.020;4.714;2023-06-26T15:07:53;2.05;;;0.90;;
22786;SDS011;63134;52.020;4.714;2023-06-26T15:10:39;2.45;;;1.00;;
22786;SDS011;63134;52.020;4.714;2023-06-26T15:13:25;3.78;;;1.05;;
22786;SDS011;63134;52.020;4.714;2023-06-26T15:16:10;1.80;;;0.90;;
22786;SDS011;63134;52.020;4.714;2023-06-26T15:18:57;4.97;;;1.08;;
22786;SDS011;63134;52.020;4.714;2023-06-26T15:21:43;2.03;;;0.73;;
22786;SDS011;63134;52.020;4.714;2023-06-26T15:24:28;2.65;;;0.98;;
22786;SDS011;63134;52.020;4.714;2023-06-26T15:27:14;2.63;;;0.70;;
22786;SDS011;63134;52.020;4.714;2023-06-26T15:30:03;2.97;;;1.00;;
22786;SDS011;63134;52.020;4.714;2023-06-26T15:32:50;4.05;;;1.27;;
22786;SDS011;63134;52.020;4.714;2023-06-26T15:35:36;1.77;;;1.00;;
22786;SDS011;63134;52.020;4.714;2023-06-26T15:38:22;3.15;;;1.15;;
22786;SDS011;63134;52.020;4.714;2023-06-26T15:41:07;2.05;;;0.80;;
22786;SDS011;63134;52.020;4.714;2023-06-26T15:43:53;2.33;;;0.90;;
22786;SDS011;63134;52.020;4.714;2023-06-26T15:46:39;2.58;;;1.10;;
22786;SDS011;63134;52.020;4.714;2023-06-26T15:49:25;2.50;;;0.90;;
22786;SDS011;63134;52.020;4.714;2023-06-26T15:52:10;4.32;;;1.23;;
22786;SDS011;63134;52.020;4.714;2023-06-26T15:54:57;2.55;;;1.23;;
22786;SDS011;63134;52.020;4.714;2023-06-26T15:57:42;3.28;;;1.00;;
22786;SDS011;63134;52.020;4.714;2023-06-26T16:00:28;6.10;;;1.35;;
22786;SDS011;63134;52.020;4.714;2023-06-26T16:03:16;7.72;;;1.58;;
22786;SDS011;63134;52.020;4.714;2023-06-26T16:06:03;2.97;;;1.08;;
22786;SDS011;63134;52.020;4.714;2023-06-26T16:08:49;1.58;;;0.85;;
22786;SDS011;63134;52.020;4.714;2023-06-26T16:11:37;3.72;;;1.20;;
22786;SDS011;63134;52.020;4.714;2023-06-26T16:14:23;3.10;;;1.00;;
22786;SDS011;63134;52.020;4.714;2023-06-26T16:17:08;2.58;;;1.05;;
22786;SDS011;63134;52.020;4.714;2023-06-26T16:19:54;2.17;;;1.20;;
22786;SDS011;63134;52.020;4.714;2023-06-26T16:22:42;4.03;;;1.10;;
22786;SDS011;63134;52.020;4.714;2023-06-26T16:25:28;5.28;;;1.23;;
22786;SDS011;63134;52.020;4.714;2023-06-26T16:28:13;1.90;;;1.05;;
22786;SDS011;63134;52.020;4.714;2023-06-26T16:30:59;3.67;;;1.20;;
22786;SDS011;63134;52.020;4.714;2023-06-26T16:33:45;2.50;;;1.08;;
22786;SDS011;63134;52.020;4.714;2023-06-26T16:36:30;5.10;;;1.02;;
22786;SDS011;63134;52.020;4.714;2023-06-26T16:39:16;2.25;;;1.15;;
22786;SDS011;63134;52.020;4.714;2023-06-26T16:42:04;3.20;;;1.13;;
22786;SDS011;63134;52.020;4.714;2023-06-26T16:44:51;4.63;;;1.45;;
22786;SDS011;63134;52.020;4.714;2023-06-26T16:47:38;4.80;;;1.27;;
22786;SDS011;63134;52.020;4.714;2023-06-26T16:50:24;4.25;;;1.60;;
22786;SDS011;63134;52.020;4.714;2023-06-26T16:53:10;3.92;;;1.58;;
22786;SDS011;63134;52.020;4.714;2023-06-26T16:55:56;2.00;;;0.88;;